Time;durP1;ratioP1;P1;durP2;ratioP2;P2;SDS_P1;SDS_P2;PMS_P1;PMS_P2;Temp;Humidity;BMP_temperature;BMP_pressure;BME280_temperature;BME280_humidity;BME280_pressure;Samples;Min_cycle;Max_cycle;Signal;HPM_P1;HPM_P2
2021/08/23 00:02:08;;;;;;;10.27;8.52;;;;;;;25.87;45.84;102629.84;5031388;28;20030;-77
2021/08/23 00:04:33;;;;;;;15.55;8.98;;;;;;;25.91;45.47;102636.31;5032539;28;20032;-77
2021/08/23 00:06:59;;;;;;;10.57;8.98;;;;;;;25.80;45.67;102635.31;5032469;28;20041;-77
2021/08/23 00:09:25;;;;;;;12.25;9.82;;;;;;;25.55;46.16;102629.22;5032536;28;20532;-78
2021/08/23 00:11:50;;;;;;;12.07;8.40;;;;;;;25.54;46.32;102642.38;5032414;28;20414;-77
2021/08/23 00:14:16;;;;;;;11.68;9.00;;;;;;;25.55;46.35;102643.22;5032425;28;20060;-77
2021/08/23 00:16:42;;;;;;;11.98;9.52;;;;;;;25.63;45.87;102640.19;5032338;28;20042;-76
2021/08/23 00:19:08;;;;;;;12.00;9.60;;;;;;;25.78;45.60;102635.69;5032360;28;20468;-77
2021/08/23 00:21:41;;;;;;;17.52;9.30;;;;;;;25.64;45.86;102641.00;5032435;28;20051;-77
2021/08/23 00:24:21;;;;;;;11.98;8.98;;;;;;;25.60;45.61;102643.72;5032322;28;20029;-77
2021/08/23 00:26:53;;;;;;;15.77;9.68;;;;;;;25.61;45.46;102636.94;5032286;28;20053;-77
2021/08/23 00:29:19;;;;;;;13.07;9.15;;;;;;;25.53;45.29;102643.56;5032101;28;20586;-77
2021/08/23 00:31:45;;;;;;;13.07;9.07;;;;;;;25.48;45.74;102637.50;5032092;28;20036;-77
2021/08/23 00:34:11;;;;;;;12.98;8.43;;;;;;;25.52;45.42;102639.16;5032160;28;20053;-77
2021/08/23 00:36:37;;;;;;;10.30;8.68;;;;;;;25.40;45.72;102636.53;5031965;28;20022;-77
2021/08/23 00:39:04;;;;;;;16.05;9.55;;;;;;;25.33;45.72;102644.78;5032072;28;20036;-77
2021/08/23 00:41:32;;;;;;;11.43;8.13;;;;;;;25.39;45.47;102638.53;5032029;28;20078;-77
2021/08/23 00:43:58;;;;;;;13.55;9.38;;;;;;;25.53;45.00;102639.97;5031963;28;20503;-77
2021/08/23 00:46:24;;;;;;;11.13;8.63;;;;;;;25.53;45.08;102645.56;5031952;28;20061;-77
2021/08/23 00:48:50;;;;;;;13.07;8.77;;;;;;;25.41;44.99;102643.75;5031954;28;20013;-77
2021/08/23 00:51:16;;;;;;;9.75;7.97;;;;;;;25.39;45.03;102646.09;5031223;28;20025;-77
2021/08/23 00:53:43;;;;;;;14.10;9.02;;;;;;;25.33;45.25;102645.59;5031844;28;20022;-77
2021/08/23 00:56:10;;;;;;;11.82;9.10;;;;;;;25.26;45.37;102648.25;5030537;28;20383;-77
2021/08/23 00:58:36;;;;;;;14.05;8.80;;;;;;;25.04;45.54;102646.16;5031803;28;20033;-77
2021/08/23 01:01:06;;;;;;;12.18;9.13;;;;;;;25.13;45.07;102641.16;5031779;28;20501;-77
2021/08/23 01:03:35;;;;;;;11.90;8.52;;;;;;;25.15;44.98;102648.00;5030422;28;20029;-77
2021/08/23 01:06:04;;;;;;;19.55;9.77;;;;;;;25.00;45.33;102648.03;5031720;28;20498;-77
2021/08/23 01:08:40;;;;;;;14.52;9.18;;;;;;;25.00;45.31;102650.84;5031707;28;20112;-77
2021/08/23 01:11:12;;;;;;;13.82;7.63;;;;;;;24.96;45.42;102653.56;5031566;28;20026;-77
2021/08/23 01:13:48;;;;;;;12.25;7.97;;;;;;;24.91;45.44;102648.25;5031503;28;20026;-77
2021/08/23 01:16:16;;;;;;;13.98;8.60;;;;;;;24.87;45.51;102650.97;5031368;28;20052;-77
2021/08/23 01:18:45;;;;;;;16.50;9.07;;;;;;;24.72;45.39;102651.03;5031430;28;20033;-77
2021/08/23 01:21:17;;;;;;;11.05;8.73;;;;;;;24.69;45.51;102657.31;5031388;28;20055;-77
2021/08/23 01:23:46;;;;;;;11.45;8.35;;;;;;;24.65;45.43;102648.88;5031372;28;20527;-76
2021/08/23 01:26:15;;;;;;;11.50;8.65;;;;;;;24.59;45.80;102658.69;5031336;28;20464;-76
2021/08/23 01:28:51;;;;;;;13.70;8.82;;;;;;;24.54;45.40;102656.16;5031151;28;20153;-77
2021/08/23 01:31:32;;;;;;;13.07;8.13;;;;;;;24.45;45.43;102661.16;5031207;28;20025;-77
2021/08/23 01:33:58;;;;;;;14.10;7.47;;;;;;;24.48;45.59;102658.44;5031270;28;20414;-77
2021/08/23 01:36:24;;;;;;;12.45;7.57;;;;;;;24.51;45.35;102656.91;5031060;28;20036;-77
2021/08/23 01:38:50;;;;;;;11.88;7.57;;;;;;;24.56;44.92;102656.63;5031119;28;20096;-77
2021/08/23 01:41:16;;;;;;;13.40;8.82;;;;;;;24.55;45.20;102663.38;5031100;28;20018;-77
2021/08/23 01:43:41;;;;;;;11.55;7.75;;;;;;;24.48;45.20;102661.22;5031062;28;20507;-77
2021/08/23 01:46:07;;;;;;;13.38;8.02;;;;;;;24.45;45.08;102661.16;5030988;28;20032;-76
2021/08/23 01:48:33;;;;;;;12.18;7.60;;;;;;;24.40;45.33;102662.22;5030975;28;20033;-77
2021/08/23 01:50:59;;;;;;;12.75;8.52;;;;;;;24.30;45.42;102659.94;5031048;28;20030;-76
2021/08/23 01:53:24;;;;;;;12.13;8.40;;;;;;;24.33;45.00;102657.28;5030946;28;20057;-77
2021/08/23 01:55:50;;;;;;;11.90;8.93;;;;;;;24.40;45.27;102665.00;5030858;28;20464;-77
2021/08/23 01:58:17;;;;;;;10.20;8.25;;;;;;;24.38;45.28;102663.78;5030815;28;20045;-77
2021/08/23 02:00:42;;;;;;;18.73;9.38;;;;;;;24.33;45.18;102660.09;5030762;28;20082;-77
2021/08/23 02:03:08;;;;;;;11.88;8.25;;;;;;;24.32;45.03;102671.56;5029599;28;20026;-77
2021/08/23 02:05:33;;;;;;;13.50;8.32;;;;;;;24.28;45.22;102679.06;5029442;28;20030;-77
2021/08/23 02:08:00;;;;;;;12.55;8.52;;;;;;;24.22;45.06;102689.69;5030611;28;20030;-77
2021/08/23 02:10:26;;;;;;;13.77;9.10;;;;;;;24.24;44.94;102678.97;5030633;28;20108;-77
2021/08/23 02:12:52;;;;;;;15.32;8.82;;;;;;;24.22;45.22;102688.88;5030612;28;20026;-77
2021/08/23 02:15:18;;;;;;;12.10;8.82;;;;;;;24.24;45.29;102681.75;5030573;28;20536;-76
2021/08/23 02:17:44;;;;;;;12.48;9.63;;;;;;;24.17;45.13;102687.16;5030441;28;20056;-77
2021/08/23 02:20:11;;;;;;;12.77;9.02;;;;;;;24.13;45.29;102686.25;5030465;28;20029;-77
2021/08/23 02:22:37;;;;;;;12.18;9.95;;;;;;;24.24;45.33;102690.13;5029199;28;20381;-77
2021/08/23 02:25:06;;;;;;;15.32;9.90;;;;;;;24.03;45.47;102687.63;5030443;28;20057;-76
2021/08/23 02:27:33;;;;;;;14.38;8.93;;;;;;;24.00;45.52;102695.88;5029880;28;20029;-77
2021/08/23 02:29:58;;;;;;;12.57;9.00;;;;;;;24.06;45.23;102688.88;5017086;28;20435;-77
2021/08/23 02:32:24;;;;;;;11.63;8.30;;;;;;;24.08;45.07;102689.31;5010260;28;20026;-77
2021/08/23 02:34:50;;;;;;;16.40;8.88;;;;;;;24.07;45.41;102682.91;5010503;28;20030;-77
2021/08/23 02:37:16;;;;;;;13.60;8.40;;;;;;;24.03;44.87;102689.56;5010382;28;20030;-77
2021/08/23 02:39:41;;;;;;;16.05;9.20;;;;;;;24.01;45.25;102683.53;5009866;28;20083;-77
2021/08/23 02:42:07;;;;;;;20.73;10.25;;;;;;;23.93;45.27;102690.09;5010531;28;20033;-77
2021/08/23 02:44:33;;;;;;;14.55;8.68;;;;;;;23.93;44.90;102684.53;5009199;28;20109;-76
2021/08/23 02:46:58;;;;;;;13.25;9.45;;;;;;;23.96;44.69;102692.19;5010379;28;20037;-77
2021/08/23 02:49:26;;;;;;;11.85;9.25;;;;;;;23.95;44.97;102694.16;5009168;28;20030;-77
2021/08/23 02:51:52;;;;;;;24.88;8.65;;;;;;;23.90;44.72;102693.63;5010308;28;20099;-77
2021/08/23 02:54:18;;;;;;;12.07;8.57;;;;;;;23.80;45.17;102692.13;5010267;28;20040;-77
2021/08/23 02:56:43;;;;;;;12.68;8.25;;;;;;;23.73;45.38;102695.56;5010201;28;20022;-77
2021/08/23 02:59:09;;;;;;;13.20;8.55;;;;;;;23.60;45.39;102694.00;5008897;28;20068;-77
2021/08/23 03:01:35;;;;;;;13.45;9.77;;;;;;;23.63;45.11;102693.28;5010197;28;20026;-77
2021/08/23 03:04:00;;;;;;;14.27;7.97;;;;;;;23.61;45.10;102697.59;5010202;28;20057;-77
2021/08/23 03:06:26;;;;;;;13.35;7.28;;;;;;;23.55;45.47;102699.78;5008819;28;20033;-76
2021/08/23 03:08:52;;;;;;;15.88;9.07;;;;;;;23.57;45.20;102703.03;5010070;28;20061;-77
2021/08/23 03:11:17;;;;;;;29.38;9.73;;;;;;;23.49;45.36;102701.19;5010075;28;20135;-77
2021/08/23 03:13:44;;;;;;;17.02;10.23;;;;;;;23.48;45.32;102699.56;5009682;28;20022;-76
2021/08/23 03:16:11;;;;;;;17.48;9.80;;;;;;;23.36;45.63;102696.84;5010004;28;20022;-77
2021/08/23 03:18:37;;;;;;;15.88;8.75;;;;;;;23.42;45.43;102709.34;5009929;28;20035;-77
2021/08/23 03:21:03;;;;;;;20.27;10.18;;;;;;;23.44;45.37;102702.28;5009933;28;20434;-77
2021/08/23 03:23:30;;;;;;;17.30;9.35;;;;;;;23.42;45.39;102709.34;5009893;28;20030;-77
2021/08/23 03:25:56;;;;;;;15.50;8.18;;;;;;;23.32;45.48;102713.47;5009918;28;20018;-77
2021/08/23 03:28:22;;;;;;;14.85;8.40;;;;;;;23.28;45.83;102697.81;5009661;28;20104;-77
2021/08/23 03:30:47;;;;;;;20.95;8.18;;;;;;;23.36;45.39;102702.44;5009816;28;20057;-77
2021/08/23 03:33:13;;;;;;;37.20;9.50;;;;;;;23.36;45.24;102702.44;5009734;28;20059;-77
2021/08/23 03:35:40;;;;;;;19.40;7.82;;;;;;;23.24;45.65;102701.28;5008529;28;20025;-77
2021/08/23 03:38:05;;;;;;;12.90;7.07;;;;;;;23.30;45.56;102701.03;5009620;28;20060;-77
2021/08/23 03:40:31;;;;;;;14.57;8.77;;;;;;;23.13;45.84;102694.59;5009652;28;20112;-77
2021/08/23 03:42:57;;;;;;;10.30;6.88;;;;;;;23.19;45.48;102693.16;5009625;28;20034;-77
2021/08/23 03:45:23;;;;;;;11.82;7.15;;;;;;;23.14;45.47;102690.63;5009607;28;20434;-77
2021/08/23 03:47:48;;;;;;;15.43;7.80;;;;;;;23.05;45.64;102691.91;5009595;28;20676;-77
2021/08/23 03:50:14;;;;;;;12.43;8.52;;;;;;;23.05;45.74;102701.09;5009604;28;20514;-76
2021/08/23 03:52:40;;;;;;;16.70;5.65;;;;;;;23.09;45.04;102695.63;5009521;28;20071;-77
2021/08/23 03:55:07;;;;;;;12.65;5.40;;;;;;;23.07;45.11;102698.78;5009512;28;20034;-77
2021/08/23 03:57:34;;;;;;;7.50;5.30;;;;;;;23.04;44.99;102699.47;5009406;28;20125;-77
2021/08/23 04:00:00;;;;;;;12.35;5.53;;;;;;;22.97;44.95;102696.44;5009473;28;20037;-77
2021/08/23 04:02:26;;;;;;;13.93;4.53;;;;;;;22.96;44.97;102703.19;5285926;23;20050;-77
2021/08/23 04:04:51;;;;;;;7.22;5.78;;;;;;;22.96;45.09;102712.38;5012422;28;20030;-77
2021/08/23 04:07:17;;;;;;;10.35;6.28;;;;;;;22.95;45.20;102709.94;5012294;28;20046;-77
2021/08/23 04:09:42;;;;;;;11.02;5.90;;;;;;;22.95;45.22;102704.34;5012365;28;20030;-76
2021/08/23 04:12:08;;;;;;;10.52;6.80;;;;;;;22.69;45.67;102711.09;5011105;28;20033;-77
2021/08/23 04:14:34;;;;;;;9.10;5.82;;;;;;;22.83;45.60;102701.56;5012388;28;20030;-76
2021/08/23 04:16:59;;;;;;;11.38;5.93;;;;;;;22.96;45.23;102709.56;5012203;28;20033;-77
2021/08/23 04:19:25;;;;;;;16.13;6.85;;;;;;;22.86;45.57;102720.41;5012211;28;20084;-77
2021/08/23 04:21:51;;;;;;;23.60;7.00;;;;;;;22.84;45.21;102706.78;5010994;28;20030;-76
2021/08/23 04:24:17;;;;;;;33.65;8.27;;;;;;;22.84;45.56;102711.56;5012213;28;20026;-77
2021/08/23 04:26:42;;;;;;;27.23;8.02;;;;;;;22.85;45.12;102722.38;5013793;28;20037;-76
2021/08/23 04:29:08;;;;;;;20.00;6.43;;;;;;;22.81;45.41;102720.59;5015807;28;20026;-77
2021/08/23 04:31:34;;;;;;;15.02;7.03;;;;;;;22.73;45.45;102725.13;5015818;28;20033;-77
2021/08/23 04:34:00;;;;;;;11.68;6.28;;;;;;;22.73;45.36;102727.09;5015926;28;20030;-77
2021/08/23 04:36:25;;;;;;;8.02;5.45;;;;;;;22.71;45.30;102733.84;5015559;28;20038;-76
2021/08/23 04:38:51;;;;;;;9.05;5.68;;;;;;;22.71;45.27;102733.03;5015858;28;20028;-77
2021/08/23 04:41:17;;;;;;;10.18;5.82;;;;;;;22.66;45.63;102739.63;5015554;28;20387;-77
2021/08/23 04:43:43;;;;;;;10.25;6.07;;;;;;;22.61;45.51;102741.84;5015556;28;20038;-77
2021/08/23 04:46:08;;;;;;;8.30;5.50;;;;;;;22.53;45.52;102740.00;5015740;28;20034;-77
2021/08/23 04:48:34;;;;;;;7.82;5.57;;;;;;;22.49;45.49;102737.06;5015467;28;20037;-76
2021/08/23 04:51:02;;;;;;;10.40;5.63;;;;;;;22.39;45.83;102737.53;5015355;28;20022;-77
2021/08/23 04:53:28;;;;;;;11.98;6.00;;;;;;;22.43;45.54;102736.47;5015486;28;20185;-77
2021/08/23 04:55:54;;;;;;;7.63;5.32;;;;;;;22.43;45.38;102732.88;5015587;28;20026;-76
2021/08/23 04:58:21;;;;;;;10.18;5.47;;;;;;;22.52;45.43;102741.97;5015204;28;20415;-77
2021/08/23 05:00:47;;;;;;;10.93;5.38;;;;;;;22.55;45.00;102741.25;5015097;28;20501;-77
2021/08/23 05:03:13;;;;;;;9.02;5.25;;;;;;;22.50;45.35;102741.47;5032159;28;20045;-77
2021/08/23 05:05:38;;;;;;;10.35;5.47;;;;;;;22.03;46.11;102755.72;5035204;28;20356;-77
2021/08/23 05:08:04;;;;;;;9.73;6.05;;;;;;;21.35;48.38;102757.13;5034798;28;20072;-76
2021/08/23 05:10:30;;;;;;;8.50;5.65;;;;;;;21.20;48.84;102756.53;5034807;28;20022;-76
2021/08/23 05:12:57;;;;;;;7.20;5.00;;;;;;;21.13;48.73;102759.03;5034734;28;20036;-76
2021/08/23 05:15:23;;;;;;;17.60;7.20;;;;;;;20.95;49.35;102758.34;5034647;28;20060;-76
2021/08/23 05:17:50;;;;;;;18.08;5.95;;;;;;;21.05;49.33;102755.16;5034681;28;20029;-77
2021/08/23 05:20:15;;;;;;;9.80;5.88;;;;;;;21.03;49.22;102760.25;5034583;28;20049;-77
2021/08/23 05:22:41;;;;;;;9.63;5.63;;;;;;;20.98;49.37;102766.00;5034611;28;20105;-76
2021/08/23 05:25:07;;;;;;;7.85;5.72;;;;;;;20.92;49.38;102769.28;5034557;28;20033;-76
2021/08/23 05:27:33;;;;;;;11.48;5.43;;;;;;;20.91;49.38;102762.09;5034446;28;20033;-76
2021/08/23 05:30:04;;;;;;;11.73;6.30;;;;;;;20.94;49.40;102758.69;5034502;28;20029;-77
2021/08/23 05:32:29;;;;;;;11.80;5.55;;;;;;;20.96;49.45;102765.53;5034185;28;20029;-76
2021/08/23 05:34:55;;;;;;;10.30;5.97;;;;;;;20.93;49.40;102765.34;5049683;28;20063;-77
2021/08/23 05:37:21;;;;;;;12.00;6.07;;;;;;;20.92;49.56;102759.00;5034051;28;20053;-77
2021/08/23 05:39:47;;;;;;;8.85;6.15;;;;;;;20.90;49.57;102766.84;5034225;28;20021;-76
2021/08/23 05:42:14;;;;;;;12.68;6.25;;;;;;;20.87;49.47;102769.50;5034246;28;20021;-77
2021/08/23 05:44:40;;;;;;;10.50;6.32;;;;;;;20.93;49.28;102768.13;5016530;28;20026;-76
2021/08/23 05:47:06;;;;;;;10.35;6.30;;;;;;;20.84;49.76;102775.72;5033963;28;20070;-75
2021/08/23 05:49:32;;;;;;;11.35;6.32;;;;;;;20.90;49.70;102775.19;5033957;28;20033;-75
2021/08/23 05:51:58;;;;;;;9.70;6.70;;;;;;;22.08;46.42;102771.44;5033972;28;20029;-75
2021/08/23 05:54:24;;;;;;;11.90;7.18;;;;;;;22.25;45.83;102771.25;5033955;28;20067;-76
2021/08/23 05:56:52;;;;;;;22.65;8.30;;;;;;;22.36;45.89;102779.97;5034082;28;20467;-75
2021/08/23 05:59:18;;;;;;;15.27;7.10;;;;;;;22.43;45.80;102775.47;5033853;28;20057;-75
2021/08/23 06:01:44;;;;;;;9.93;6.53;;;;;;;22.41;45.67;102780.56;5033656;28;20171;-75
2021/08/23 06:04:09;;;;;;;8.18;5.95;;;;;;;22.45;45.74;102785.47;5033886;28;20479;-75
2021/08/23 06:06:35;;;;;;;13.15;6.18;;;;;;;22.42;45.63;102784.19;5033938;28;20045;-75
2021/08/23 06:09:01;;;;;;;10.95;6.28;;;;;;;22.42;45.78;102792.53;5033715;28;20056;-76
2021/08/23 06:11:27;;;;;;;11.30;6.47;;;;;;;22.41;45.88;102790.91;5033643;28;20116;-75
2021/08/23 06:13:53;;;;;;;9.15;6.70;;;;;;;22.36;46.00;102791.13;5033609;28;20236;-75
2021/08/23 06:16:18;;;;;;;13.57;7.65;;;;;;;22.41;45.90;102788.94;5033603;28;20515;-75
2021/08/23 06:18:44;;;;;;;8.00;5.88;;;;;;;22.60;45.62;102790.38;5033764;28;20503;-76
2021/08/23 06:21:10;;;;;;;9.65;6.68;;;;;;;22.66;45.78;102781.41;5033397;28;20475;-75
2021/08/23 06:23:36;;;;;;;13.63;6.50;;;;;;;22.75;45.66;102784.13;5033423;28;20033;-76
2021/08/23 06:26:01;;;;;;;8.80;6.25;;;;;;;22.73;45.68;102785.63;5033423;28;20156;-75
2021/08/23 06:28:27;;;;;;;8.32;5.93;;;;;;;22.82;45.62;102789.94;5033300;28;20029;-76
2021/08/23 06:30:52;;;;;;;7.72;5.53;;;;;;;22.85;45.71;102794.00;5015406;28;20026;-76
2021/08/23 06:33:18;;;;;;;8.73;6.63;;;;;;;22.91;45.75;102792.66;5048520;28;20117;-77
2021/08/23 06:35:44;;;;;;;8.48;6.10;;;;;;;22.85;45.91;102794.00;5033205;28;20088;-77
2021/08/23 06:38:10;;;;;;;9.07;6.57;;;;;;;22.95;45.58;102796.34;5015577;28;20497;-77
2021/08/23 06:40:36;;;;;;;7.88;6.40;;;;;;;22.97;45.68;102799.59;5015648;28;20025;-78
2021/08/23 06:43:01;;;;;;;9.07;6.78;;;;;;;23.04;46.01;102802.63;5033301;28;20029;-76
2021/08/23 06:45:27;;;;;;;7.30;5.65;;;;;;;23.17;45.55;102809.81;5033096;28;20356;-76
2021/08/23 06:47:53;;;;;;;14.35;6.57;;;;;;;23.23;45.62;102808.44;5029820;28;20257;-77
2021/08/23 06:50:18;;;;;;;10.45;6.78;;;;;;;23.41;45.56;102808.97;5031713;28;20446;-76
2021/08/23 06:52:44;;;;;;;14.98;7.20;;;;;;;23.45;45.66;102809.91;5032245;28;20029;-76
2021/08/23 06:55:10;;;;;;;10.57;6.60;;;;;;;23.46;45.40;102810.72;5027386;28;20395;-76
2021/08/23 06:57:36;;;;;;;7.68;6.32;;;;;;;23.53;45.73;102814.53;5013019;28;20063;-76
2021/08/23 07:00:02;;;;;;;8.75;6.35;;;;;;;23.57;45.53;102822.19;5015292;28;20033;-76
2021/08/23 07:02:27;;;;;;;7.70;6.30;;;;;;;23.75;45.52;102821.63;5015809;28;20633;-76
2021/08/23 07:04:53;;;;;;;7.95;6.45;;;;;;;23.77;45.58;102824.03;5016286;28;20037;-76
2021/08/23 07:07:18;;;;;;;11.35;6.63;;;;;;;23.88;45.88;102832.72;5015911;28;20021;-76
2021/08/23 07:09:44;;;;;;;10.70;5.88;;;;;;;23.80;46.25;102835.34;5015640;28;20036;-76
2021/08/23 07:12:10;;;;;;;12.48;7.13;;;;;;;23.86;46.42;102840.66;5015543;28;20027;-76
2021/08/23 07:14:36;;;;;;;10.32;6.57;;;;;;;24.07;45.94;102839.28;5016751;28;20029;-76
2021/08/23 07:17:03;;;;;;;10.15;6.85;;;;;;;24.07;46.33;102839.28;5017102;28;20037;-77
2021/08/23 07:19:29;;;;;;;14.95;6.35;;;;;;;24.15;46.73;102834.72;5015418;28;20476;-77
2021/08/23 07:21:54;;;;;;;12.05;6.43;;;;;;;24.32;46.22;102836.38;5016409;28;20056;-76
2021/08/23 07:24:20;;;;;;;13.75;7.45;;;;;;;24.44;46.44;102833.56;5015569;28;20021;-77
2021/08/23 07:26:45;;;;;;;8.90;6.65;;;;;;;24.55;46.37;102826.28;5016113;28;20458;-77
2021/08/23 07:29:14;;;;;;;8.57;6.50;;;;;;;24.65;46.35;102836.13;5018528;28;20025;-75
2021/08/23 07:31:41;;;;;;;8.15;6.07;;;;;;;24.80;46.16;102840.91;5032515;28;20084;-75
2021/08/23 07:34:07;;;;;;;11.73;5.95;;;;;;;24.96;46.34;102834.50;5032423;28;20488;-75
2021/08/23 07:36:32;;;;;;;14.30;6.97;;;;;;;24.87;46.44;102838.31;5021251;28;20056;-76
2021/08/23 07:38:58;;;;;;;15.15;7.15;;;;;;;25.03;46.42;102840.28;5015534;28;20072;-76
2021/08/23 07:41:23;;;;;;;15.35;6.88;;;;;;;25.27;45.95;102837.31;5014725;28;20061;-75
2021/08/23 07:43:49;;;;;;;11.27;6.07;;;;;;;25.36;46.21;102842.69;5016350;28;20029;-75
2021/08/23 07:46:14;;;;;;;18.55;8.05;;;;;;;25.39;46.67;102836.38;5015499;28;20033;-75
2021/08/23 07:48:41;;;;;;;13.27;7.60;;;;;;;25.48;46.37;102847.38;5032314;28;20033;-75
2021/08/23 07:51:07;;;;;;;11.48;8.15;;;;;;;25.57;46.75;102842.38;5014594;28;20475;-74
2021/08/23 07:53:32;;;;;;;10.40;7.35;;;;;;;25.79;46.48;102844.50;5032266;28;20033;-75
2021/08/23 07:55:58;;;;;;;14.25;7.85;;;;;;;25.83;46.51;102852.97;5014659;28;20026;-74
2021/08/23 07:58:23;;;;;;;15.35;8.73;;;;;;;25.98;46.13;102855.72;5014369;28;20387;-74
2021/08/23 08:00:49;;;;;;;13.90;9.93;;;;;;;26.05;46.58;102857.03;5032485;28;20025;-74
2021/08/23 08:03:14;;;;;;;14.05;8.85;;;;;;;26.23;46.14;102855.44;5035875;28;20099;-75
2021/08/23 08:05:40;;;;;;;14.70;9.25;;;;;;;26.31;46.12;102859.19;5035802;28;20028;-74
2021/08/23 08:08:07;;;;;;;14.45;9.68;;;;;;;26.32;46.50;102858.00;5035962;28;20034;-74
2021/08/23 08:10:34;;;;;;;11.73;8.85;;;;;;;26.36;46.16;102861.66;5018155;28;20422;-75
2021/08/23 08:12:59;;;;;;;15.35;9.77;;;;;;;26.47;45.97;102857.94;5035809;28;20025;-75
2021/08/23 08:15:25;;;;;;;15.32;8.70;;;;;;;26.51;46.24;102870.00;5015973;28;20034;-75
2021/08/23 08:17:50;;;;;;;13.88;9.15;;;;;;;26.51;46.10;102869.19;5001839;28;20537;-75
2021/08/23 08:20:16;;;;;;;12.57;8.75;;;;;;;26.70;45.73;102871.16;5019770;28;20025;-75
2021/08/23 08:22:44;;;;;;;14.07;8.88;;;;;;;26.62;45.91;102875.84;5018941;28;20053;-75
2021/08/23 08:25:10;;;;;;;15.32;9.65;;;;;;;26.73;45.45;102876.00;5018519;28;20419;-75
2021/08/23 08:27:36;;;;;;;10.98;8.70;;;;;;;26.81;45.29;102883.38;5019884;28;20022;-75
2021/08/23 08:30:03;;;;;;;14.13;9.52;;;;;;;26.91;45.13;102876.34;5018772;28;20029;-75
2021/08/23 08:32:28;;;;;;;12.07;9.50;;;;;;;27.03;45.14;102884.56;5018666;28;20014;-75
2021/08/23 08:34:54;;;;;;;17.95;10.95;;;;;;;27.08;44.77;102885.09;5018940;28;20111;-75
2021/08/23 08:37:20;;;;;;;15.00;8.85;;;;;;;27.07;45.04;102889.09;5018403;28;20059;-75
2021/08/23 08:39:46;;;;;;;10.63;7.93;;;;;;;27.19;44.93;102893.66;5018258;28;20148;-76
2021/08/23 08:42:11;;;;;;;11.73;7.75;;;;;;;27.48;44.18;102883.69;5019242;28;20431;-75
2021/08/23 08:44:37;;;;;;;12.30;7.97;;;;;;;27.36;44.55;102881.13;5035308;28;20021;-74
2021/08/23 08:47:04;;;;;;;12.52;8.80;;;;;;;27.38;44.53;102889.97;5035222;28;20025;-74
2021/08/23 08:49:34;;;;;;;12.80;8.55;;;;;;;27.46;44.28;102882.47;5035261;28;20063;-76
2021/08/23 08:51:59;;;;;;;20.42;10.05;;;;;;;27.54;44.31;102887.00;5014907;28;20479;-74
2021/08/23 08:54:25;;;;;;;14.57;7.45;;;;;;;27.61;43.86;102896.34;5035168;28;20068;-75
2021/08/23 08:56:51;;;;;;;7.53;5.07;;;;;;;27.68;43.42;102892.88;5034896;28;20029;-76
2021/08/23 08:59:16;;;;;;;10.32;6.78;;;;;;;27.79;43.05;102895.81;5035180;28;20025;-74
2021/08/23 09:01:43;;;;;;;8.65;7.07;;;;;;;27.85;43.15;102897.09;5034827;28;20050;-75
2021/08/23 09:04:09;;;;;;;9.02;7.25;;;;;;;27.97;42.91;102894.06;5034978;28;20375;-75
2021/08/23 09:06:42;;;;;;;15.15;8.52;;;;;;;27.98;42.90;102898.50;5034885;28;20028;-75
2021/08/23 09:09:13;;;;;;;8.82;7.10;;;;;;;28.18;42.59;102899.13;5034787;28;20103;-75
2021/08/23 09:11:40;;;;;;;9.30;6.15;;;;;;;28.22;42.57;102894.38;5034199;28;20021;-75
2021/08/23 09:14:08;;;;;;;8.43;6.22;;;;;;;28.15;42.79;102897.91;5034661;28;20380;-75
2021/08/23 09:16:43;;;;;;;8.63;5.55;;;;;;;28.24;42.17;102908.03;5034611;28;20105;-74
2021/08/23 09:19:25;;;;;;;14.82;7.85;;;;;;;28.29;42.40;102916.13;5034752;28;20026;-74
2021/08/23 09:22:00;;;;;;;14.90;8.93;;;;;;;28.35;42.19;102914.63;5016824;28;20071;-75
2021/08/23 09:24:29;;;;;;;13.90;8.60;;;;;;;28.32;42.18;102923.81;5034507;28;20083;-75
2021/08/23 09:27:12;;;;;;;8.45;7.18;;;;;;;28.23;42.13;102920.47;5034453;28;20028;-75
2021/08/23 09:29:59;;;;;;;8.95;7.80;;;;;;;28.12;42.05;102917.53;5034484;28;20033;-75
2021/08/23 09:32:49;;;;;;;9.80;8.50;;;;;;;28.21;41.77;102920.88;5034454;28;20044;-75
2021/08/23 09:35:26;;;;;;;7.90;6.50;;;;;;;28.25;41.78;102920.91;5021705;28;20033;-75
2021/08/23 09:37:51;;;;;;;12.85;8.48;;;;;;;28.22;42.07;102922.47;5034406;28;20489;-75
2021/08/23 09:40:18;;;;;;;11.25;7.18;;;;;;;28.23;41.80;102924.09;5034286;28;20022;-76
2021/08/23 09:42:44;;;;;;;8.13;7.25;;;;;;;28.33;41.64;102917.81;5034279;28;20025;-75
2021/08/23 09:45:17;;;;;;;8.82;7.68;;;;;;;28.39;41.54;102924.72;5034191;28;20483;-76
2021/08/23 09:47:42;;;;;;;9.10;7.72;;;;;;;28.50;41.17;102924.84;5034221;28;20043;-76
2021/08/23 09:50:18;;;;;;;8.70;7.32;;;;;;;28.39;41.37;102921.09;5034130;28;20022;-76
2021/08/23 09:52:44;;;;;;;8.80;7.90;;;;;;;28.43;41.55;102924.78;5034042;28;20075;-76
2021/08/23 09:55:10;;;;;;;14.15;8.63;;;;;;;28.45;41.15;102928.00;5033722;28;20097;-76
2021/08/23 09:57:45;;;;;;;10.20;8.00;;;;;;;28.28;41.19;102929.38;5033768;28;20026;-77
2021/08/23 10:00:12;;;;;;;9.02;7.45;;;;;;;28.39;41.06;102932.34;5033417;28;20025;-76
2021/08/23 10:02:46;;;;;;;11.55;7.72;;;;;;;28.41;41.17;102935.56;5032594;28;20045;-76
2021/08/23 10:05:16;;;;;;;9.25;7.22;;;;;;;28.43;41.04;102936.84;5033853;28;20049;-76
2021/08/23 10:07:41;;;;;;;11.10;7.55;;;;;;;28.58;40.98;102940.63;5034069;28;20509;-77
2021/08/23 10:10:08;;;;;;;9.25;7.30;;;;;;;28.64;41.09;102944.72;5033770;28;20036;-76
2021/08/23 10:12:34;;;;;;;9.75;7.95;;;;;;;28.69;40.53;102926.66;5033663;28;20103;-76
2021/08/23 10:14:59;;;;;;;13.15;6.88;;;;;;;27.93;42.19;102936.16;5033601;28;20060;-76
2021/08/23 10:17:28;;;;;;;14.15;6.82;;;;;;;27.56;43.14;102935.16;5033482;28;20025;-76
2021/08/23 10:19:54;;;;;;;10.55;8.18;;;;;;;27.42;43.84;102935.75;5033505;28;20033;-76
2021/08/23 10:22:20;;;;;;;10.05;6.82;;;;;;;27.49;43.81;102937.84;5015767;28;20030;-77
2021/08/23 10:24:47;;;;;;;15.30;9.02;;;;;;;28.57;41.00;102932.56;5032578;28;20426;-77
2021/08/23 10:27:26;;;;;;;9.77;6.90;;;;;;;28.75;40.50;102930.75;5033372;28;20048;-76
2021/08/23 10:29:53;;;;;;;;;;;;;;;28.93;39.91;102939.38;5022074;28;20037;-76
2021/08/23 10:32:18;;;;;;;8.07;5.40;;;;;;;29.01;39.99;102939.06;5033252;28;19913;-77
2021/08/23 10:34:45;;;;;;;7.68;6.07;;;;;;;29.01;39.66;102939.06;5033258;28;20021;-78
2021/08/23 10:37:23;;;;;;;8.10;6.88;;;;;;;28.97;39.40;102940.25;5031839;28;20029;-76
2021/08/23 10:40:02;;;;;;;8.60;6.47;;;;;;;28.92;39.51;102949.03;5031429;28;20025;-76
2021/08/23 10:42:38;;;;;;;14.68;9.13;;;;;;;28.99;39.90;102943.47;5013391;28;20030;-76
2021/08/23 10:45:12;;;;;;;9.15;7.22;;;;;;;29.00;39.51;102956.34;5013204;28;20037;-76
2021/08/23 10:47:38;;;;;;;8.73;7.63;;;;;;;29.00;39.49;102959.16;5011650;28;20030;-77
2021/08/23 10:50:07;;;;;;;9.05;6.00;;;;;;;28.95;39.66;102951.88;5013465;28;20109;-76
2021/08/23 10:52:35;;;;;;;11.32;7.30;;;;;;;28.93;39.89;102961.91;5013529;28;20037;-76
2021/08/23 10:55:02;;;;;;;8.63;6.18;;;;;;;29.04;39.78;102957.19;5013231;28;20026;-76
2021/08/23 10:57:27;;;;;;;8.90;6.18;;;;;;;29.14;39.84;102967.72;5015120;28;20065;-76
2021/08/23 10:59:54;;;;;;;8.18;6.25;;;;;;;29.29;39.48;102968.66;5032926;28;20057;-76
2021/08/23 11:02:20;;;;;;;8.15;5.95;;;;;;;29.26;40.04;102969.47;5032673;28;20119;-75
2021/08/23 11:04:55;;;;;;;10.35;6.18;;;;;;;29.38;39.78;102965.53;5032820;28;20029;-75
2021/08/23 11:07:30;;;;;;;7.88;6.90;;;;;;;29.40;39.45;102966.78;5032593;28;20025;-76
2021/08/23 11:10:08;;;;;;;12.82;7.45;;;;;;;29.08;39.99;102974.91;5031018;28;20495;-76
2021/08/23 11:12:47;;;;;;;7.82;6.40;;;;;;;29.25;39.71;102971.47;5032667;28;20030;-77
2021/08/23 11:15:30;;;;;;;;;;;;;;;29.25;39.79;102974.28;5032995;28;20103;-78
2021/08/23 11:17:59;;;;;;;8.52;6.93;;;;;;;29.26;39.84;102981.53;5022043;28;20263;-77
2021/08/23 11:20:26;;;;;;;;;;;;;;;29.22;39.75;102972.22;5033075;28;20048;-77